sensor_id;sensor_type;location;lat;lon;timestamp;P1;durP1;ratioP1;P2;durP2;ratioP2
44987;SDS011;35735;52.226;21.254;2023-11-21T00:03:07;16.02;;;12.85;;
44987;SDS011;35735;52.226;21.254;2023-11-21T00:08:08;16.00;;;11.80;;
44987;SDS011;35735;52.226;21.254;2023-11-21T00:13:08;16.33;;;12.85;;
44987;SDS011;35735;52.226;21.254;2023-11-21T00:18:09;17.27;;;12.10;;
44987;SDS011;35735;52.226;21.254;2023-11-21T00:23:10;17.50;;;12.90;;
44987;SDS011;35735;52.226;21.254;2023-11-21T00:28:10;14.45;;;10.98;;
44987;SDS011;35735;52.226;21.254;2023-11-21T00:33:11;16.62;;;12.43;;
44987;SDS011;35735;52.226;21.254;2023-11-21T00:38:11;20.15;;;14.65;;
44987;SDS011;35735;52.226;21.254;2023-11-21T00:43:12;21.80;;;14.68;;
44987;SDS011;35735;52.226;21.254;2023-11-21T00:48:12;19.25;;;13.75;;
44987;SDS011;35735;52.226;21.254;2023-11-21T00:53:13;17.40;;;12.70;;
44987;SDS011;35735;52.226;21.254;2023-11-21T00:58:13;17.50;;;13.62;;
44987;SDS011;35735;52.226;21.254;2023-11-21T01:03:14;18.95;;;14.80;;
44987;SDS011;35735;52.226;21.254;2023-11-21T01:08:15;20.00;;;14.45;;
44987;SDS011;35735;52.226;21.254;2023-11-21T01:13:16;18.75;;;14.57;;
44987;SDS011;35735;52.226;21.254;2023-11-21T01:18:16;17.85;;;13.43;;
44987;SDS011;35735;52.226;21.254;2023-11-21T01:23:17;20.48;;;14.15;;
44987;SDS011;35735;52.226;21.254;2023-11-21T01:28:17;19.05;;;13.93;;
44987;SDS011;35735;52.226;21.254;2023-11-21T01:33:18;19.00;;;14.52;;
44987;SDS011;35735;52.226;21.254;2023-11-21T01:38:19;18.92;;;14.95;;
44987;SDS011;35735;52.226;21.254;2023-11-21T01:43:19;20.48;;;13.98;;
44987;SDS011;35735;52.226;21.254;2023-11-21T01:48:20;21.02;;;14.00;;
44987;SDS011;35735;52.226;21.254;2023-11-21T01:53:20;19.17;;;14.45;;
44987;SDS011;35735;52.226;21.254;2023-11-21T01:58:21;20.30;;;13.65;;
44987;SDS011;35735;52.226;21.254;2023-11-21T02:03:22;19.30;;;14.40;;
44987;SDS011;35735;52.226;21.254;2023-11-21T02:08:23;18.05;;;13.38;;
44987;SDS011;35735;52.226;21.254;2023-11-21T02:13:23;16.65;;;13.45;;
44987;SDS011;35735;52.226;21.254;2023-11-21T02:18:24;18.55;;;13.50;;
44987;SDS011;35735;52.226;21.254;2023-11-21T02:23:24;18.30;;;12.77;;
44987;SDS011;35735;52.226;21.254;2023-11-21T02:28:25;17.40;;;12.90;;
44987;SDS011;35735;52.226;21.254;2023-11-21T02:33:26;17.42;;;13.40;;
44987;SDS011;35735;52.226;21.254;2023-11-21T02:38:26;18.92;;;14.32;;
44987;SDS011;35735;52.226;21.254;2023-11-21T02:43:27;19.83;;;14.60;;
44987;SDS011;35735;52.226;21.254;2023-11-21T02:48:27;19.80;;;14.87;;
44987;SDS011;35735;52.226;21.254;2023-11-21T02:53:28;21.80;;;16.17;;
44987;SDS011;35735;52.226;21.254;2023-11-21T02:58:28;21.25;;;14.87;;
44987;SDS011;35735;52.226;21.254;2023-11-21T03:03:29;21.60;;;15.23;;
44987;SDS011;35735;52.226;21.254;2023-11-21T03:08:29;21.60;;;14.48;;
44987;SDS011;35735;52.226;21.254;2023-11-21T03:13:30;22.30;;;15.10;;
44987;SDS011;35735;52.226;21.254;2023-11-21T03:18:31;22.20;;;15.45;;
44987;SDS011;35735;52.226;21.254;2023-11-21T03:23:31;20.05;;;14.45;;
44987;SDS011;35735;52.226;21.254;2023-11-21T03:28:32;20.20;;;14.02;;
44987;SDS011;35735;52.226;21.254;2023-11-21T03:33:32;19.90;;;13.60;;
44987;SDS011;35735;52.226;21.254;2023-11-21T03:38:33;22.10;;;15.18;;
44987;SDS011;35735;52.226;21.254;2023-11-21T03:43:33;20.20;;;13.77;;
44987;SDS011;35735;52.226;21.254;2023-11-21T03:48:34;17.98;;;13.00;;
44987;SDS011;35735;52.226;21.254;2023-11-21T03:53:35;18.37;;;13.77;;
44987;SDS011;35735;52.226;21.254;2023-11-21T03:58:35;21.48;;;14.02;;
44987;SDS011;35735;52.226;21.254;2023-11-21T04:03:36;19.92;;;14.93;;
44987;SDS011;35735;52.226;21.254;2023-11-21T04:08:36;22.62;;;14.90;;
44987;SDS011;35735;52.226;21.254;2023-11-21T04:13:37;21.17;;;13.95;;
44987;SDS011;35735;52.226;21.254;2023-11-21T04:18:39;20.15;;;14.40;;
44987;SDS011;35735;52.226;21.254;2023-11-21T04:23:40;17.80;;;14.00;;
44987;SDS011;35735;52.226;21.254;2023-11-21T04:28:40;18.42;;;12.88;;
44987;SDS011;35735;52.226;21.254;2023-11-21T04:33:41;18.48;;;13.62;;
44987;SDS011;35735;52.226;21.254;2023-11-21T04:38:41;19.45;;;12.90;;
44987;SDS011;35735;52.226;21.254;2023-11-21T04:43:42;17.48;;;12.32;;
44987;SDS011;35735;52.226;21.254;2023-11-21T04:48:43;16.15;;;11.40;;
44987;SDS011;35735;52.226;21.254;2023-11-21T04:53:43;14.13;;;10.77;;
44987;SDS011;35735;52.226;21.254;2023-11-21T04:58:44;14.30;;;10.40;;
44987;SDS011;35735;52.226;21.254;2023-11-21T05:03:45;12.75;;;10.18;;
44987;SDS011;35735;52.226;21.254;2023-11-21T05:08:46;15.57;;;11.48;;
44987;SDS011;35735;52.226;21.254;2023-11-21T05:13:46;14.00;;;10.15;;
44987;SDS011;35735;52.226;21.254;2023-11-21T05:18:48;15.20;;;11.50;;
44987;SDS011;35735;52.226;21.254;2023-11-21T05:23:49;15.13;;;10.60;;
44987;SDS011;35735;52.226;21.254;2023-11-21T05:28:49;13.05;;;10.10;;
44987;SDS011;35735;52.226;21.254;2023-11-21T05:33:50;16.55;;;10.63;;
44987;SDS011;35735;52.226;21.254;2023-11-21T05:38:50;12.32;;;10.18;;
44987;SDS011;35735;52.226;21.254;2023-11-21T05:43:51;13.13;;;10.18;;
44987;SDS011;35735;52.226;21.254;2023-11-21T05:48:52;11.75;;;8.25;;
44987;SDS011;35735;52.226;21.254;2023-11-21T05:53:52;10.73;;;8.40;;
44987;SDS011;35735;52.226;21.254;2023-11-21T05:58:53;13.70;;;9.40;;
44987;SDS011;35735;52.226;21.254;2023-11-21T06:03:54;12.93;;;9.07;;
44987;SDS011;35735;52.226;21.254;2023-11-21T06:08:54;11.25;;;8.50;;
44987;SDS011;35735;52.226;21.254;2023-11-21T06:13:55;11.35;;;8.07;;
44987;SDS011;35735;52.226;21.254;2023-11-21T06:18:55;11.60;;;8.27;;
44987;SDS011;35735;52.226;21.254;2023-11-21T06:23:56;12.48;;;9.43;;
44987;SDS011;35735;52.226;21.254;2023-11-21T06:28:57;13.70;;;9.20;;
44987;SDS011;35735;52.226;21.254;2023-11-21T06:33:58;11.20;;;9.05;;
44987;SDS011;35735;52.226;21.254;2023-11-21T06:38:58;14.18;;;9.13;;
44987;SDS011;35735;52.226;21.254;2023-11-21T06:43:59;14.13;;;9.80;;
44987;SDS011;35735;52.226;21.254;2023-11-21T06:48:59;13.25;;;9.77;;
44987;SDS011;35735;52.226;21.254;2023-11-21T06:54:00;14.40;;;10.07;;
44987;SDS011;35735;52.226;21.254;2023-11-21T06:59:01;14.20;;;9.98;;
44987;SDS011;35735;52.226;21.254;2023-11-21T07:04:01;16.23;;;10.82;;
44987;SDS011;35735;52.226;21.254;2023-11-21T07:09:02;15.60;;;10.65;;
44987;SDS011;35735;52.226;21.254;2023-11-21T07:14:02;16.35;;;11.70;;
44987;SDS011;35735;52.226;21.254;2023-11-21T07:19:03;16.55;;;11.65;;
44987;SDS011;35735;52.226;21.254;2023-11-21T07:24:05;16.12;;;11.93;;
44987;SDS011;35735;52.226;21.254;2023-11-21T07:29:07;20.02;;;11.75;;
44987;SDS011;35735;52.226;21.254;2023-11-21T07:34:08;16.85;;;11.07;;
44987;SDS011;35735;52.226;21.254;2023-11-21T07:39:09;17.83;;;12.13;;
44987;SDS011;35735;52.226;21.254;2023-11-21T07:44:09;19.30;;;12.35;;
44987;SDS011;35735;52.226;21.254;2023-11-21T07:49:10;16.23;;;10.73;;
44987;SDS011;35735;52.226;21.254;2023-11-21T07:54:11;17.67;;;11.40;;
44987;SDS011;35735;52.226;21.254;2023-11-21T07:59:11;18.17;;;12.02;;
44987;SDS011;35735;52.226;21.254;2023-11-21T08:04:12;16.67;;;11.15;;
44987;SDS011;35735;52.226;21.254;2023-11-21T08:09:14;16.90;;;11.38;;
44987;SDS011;35735;52.226;21.254;2023-11-21T08:14:15;14.45;;;10.75;;
44987;SDS011;35735;52.226;21.254;2023-11-21T08:19:17;17.40;;;11.57;;
44987;SDS011;35735;52.226;21.254;2023-11-21T08:24:17;18.52;;;13.15;;
44987;SDS011;35735;52.226;21.254;2023-11-21T08:29:18;17.80;;;11.00;;
44987;SDS011;35735;52.226;21.254;2023-11-21T08:34:18;16.08;;;12.43;;
44987;SDS011;35735;52.226;21.254;2023-11-21T08:39:19;16.55;;;11.82;;
44987;SDS011;35735;52.226;21.254;2023-11-21T08:44:20;15.48;;;12.20;;
44987;SDS011;35735;52.226;21.254;2023-11-21T08:49:20;18.80;;;12.63;;
44987;SDS011;35735;52.226;21.254;2023-11-21T08:54:21;18.05;;;12.48;;
44987;SDS011;35735;52.226;21.254;2023-11-21T08:59:22;17.35;;;12.60;;
44987;SDS011;35735;52.226;21.254;2023-11-21T09:04:22;18.40;;;12.55;;
44987;SDS011;35735;52.226;21.254;2023-11-21T09:09:23;17.95;;;12.63;;
44987;SDS011;35735;52.226;21.254;2023-11-21T09:14:23;16.87;;;11.98;;
44987;SDS011;35735;52.226;21.254;2023-11-21T09:19:24;18.75;;;12.40;;
44987;SDS011;35735;52.226;21.254;2023-11-21T09:24:25;15.80;;;11.93;;
44987;SDS011;35735;52.226;21.254;2023-11-21T09:29:26;17.85;;;12.93;;
44987;SDS011;35735;52.226;21.254;2023-11-21T09:34:27;17.60;;;12.45;;
44987;SDS011;35735;52.226;21.254;2023-11-21T09:45:26;18.35;;;12.40;;
44987;SDS011;35735;52.226;21.254;2023-11-21T09:50:28;15.30;;;11.85;;
44987;SDS011;35735;52.226;21.254;2023-11-21T13:11:45;24.52;;;16.17;;
44987;SDS011;35735;52.226;21.254;2023-11-21T13:16:46;24.92;;;16.83;;
44987;SDS011;35735;52.226;21.254;2023-11-21T13:21:46;21.00;;;15.20;;
44987;SDS011;35735;52.226;21.254;2023-11-21T13:26:47;23.62;;;17.33;;
44987;SDS011;35735;52.226;21.254;2023-11-21T13:31:48;22.40;;;15.20;;
44987;SDS011;35735;52.226;21.254;2023-11-21T13:36:48;21.87;;;14.98;;
44987;SDS011;35735;52.226;21.254;2023-11-21T13:41:49;26.40;;;16.25;;
44987;SDS011;35735;52.226;21.254;2023-11-21T13:46:49;23.95;;;17.95;;
44987;SDS011;35735;52.226;21.254;2023-11-21T13:51:50;32.78;;;21.73;;
44987;SDS011;35735;52.226;21.254;2023-11-21T13:56:51;35.53;;;24.45;;
44987;SDS011;35735;52.226;21.254;2023-11-21T14:01:51;26.40;;;16.83;;
44987;SDS011;35735;52.226;21.254;2023-11-21T14:06:52;33.08;;;22.17;;
44987;SDS011;35735;52.226;21.254;2023-11-21T14:11:53;25.98;;;16.77;;
44987;SDS011;35735;52.226;21.254;2023-11-21T14:16:56;26.30;;;17.65;;
44987;SDS011;35735;52.226;21.254;2023-11-21T14:21:56;25.37;;;17.40;;
44987;SDS011;35735;52.226;21.254;2023-11-21T14:26:57;26.73;;;18.02;;
44987;SDS011;35735;52.226;21.254;2023-11-21T14:31:58;23.60;;;16.65;;
44987;SDS011;35735;52.226;21.254;2023-11-21T14:36:58;24.50;;;17.73;;
44987;SDS011;35735;52.226;21.254;2023-11-21T14:41:59;22.48;;;15.15;;
44987;SDS011;35735;52.226;21.254;2023-11-21T14:47:00;24.35;;;16.92;;
44987;SDS011;35735;52.226;21.254;2023-11-21T14:52:00;19.65;;;15.00;;
44987;SDS011;35735;52.226;21.254;2023-11-21T14:57:01;19.48;;;14.63;;
44987;SDS011;35735;52.226;21.254;2023-11-21T15:02:03;21.25;;;14.80;;
44987;SDS011;35735;52.226;21.254;2023-11-21T15:07:04;20.75;;;14.98;;
44987;SDS011;35735;52.226;21.254;2023-11-21T15:12:06;21.00;;;14.82;;
44987;SDS011;35735;52.226;21.254;2023-11-21T15:17:07;20.00;;;14.20;;
44987;SDS011;35735;52.226;21.254;2023-11-21T15:22:08;21.80;;;14.82;;
44987;SDS011;35735;52.226;21.254;2023-11-21T15:27:09;20.17;;;12.95;;
44987;SDS011;35735;52.226;21.254;2023-11-21T15:32:10;21.60;;;15.23;;
44987;SDS011;35735;52.226;21.254;2023-11-21T15:37:12;23.95;;;15.50;;
44987;SDS011;35735;52.226;21.254;2023-11-21T15:42:13;20.98;;;13.88;;
44987;SDS011;35735;52.226;21.254;2023-11-21T15:47:14;22.37;;;14.85;;
44987;SDS011;35735;52.226;21.254;2023-11-21T15:52:14;22.20;;;14.25;;
44987;SDS011;35735;52.226;21.254;2023-11-21T15:57:15;22.20;;;14.82;;
44987;SDS011;35735;52.226;21.254;2023-11-21T16:02:16;21.05;;;14.70;;
44987;SDS011;35735;52.226;21.254;2023-11-21T16:07:17;25.67;;;14.57;;
44987;SDS011;35735;52.226;21.254;2023-11-21T16:12:18;31.02;;;17.40;;
44987;SDS011;35735;52.226;21.254;2023-11-21T16:17:18;24.30;;;13.57;;
44987;SDS011;35735;52.226;21.254;2023-11-21T16:22:19;19.95;;;11.93;;
44987;SDS011;35735;52.226;21.254;2023-11-21T16:27:20;20.90;;;13.55;;
44987;SDS011;35735;52.226;21.254;2023-11-21T16:32:20;21.08;;;12.48;;
44987;SDS011;35735;52.226;21.254;2023-11-21T16:37:21;21.25;;;13.27;;
44987;SDS011;35735;52.226;21.254;2023-11-21T16:42:22;23.90;;;14.02;;
44987;SDS011;35735;52.226;21.254;2023-11-21T16:47:22;24.35;;;14.82;;
44987;SDS011;35735;52.226;21.254;2023-11-21T16:52:23;23.35;;;12.85;;
44987;SDS011;35735;52.226;21.254;2023-11-21T16:57:23;21.80;;;11.48;;
44987;SDS011;35735;52.226;21.254;2023-11-21T17:02:24;19.55;;;11.82;;
44987;SDS011;35735;52.226;21.254;2023-11-21T17:07:25;18.60;;;11.30;;
44987;SDS011;35735;52.226;21.254;2023-11-21T17:12:25;16.58;;;10.52;;
44987;SDS011;35735;52.226;21.254;2023-11-21T17:17:26;15.57;;;10.02;;
44987;SDS011;35735;52.226;21.254;2023-11-21T17:22:26;15.50;;;10.57;;
44987;SDS011;35735;52.226;21.254;2023-11-21T17:27:27;19.27;;;13.05;;
44987;SDS011;35735;52.226;21.254;2023-11-21T17:32:28;21.42;;;14.20;;
44987;SDS011;35735;52.226;21.254;2023-11-21T17:37:28;17.90;;;11.18;;
44987;SDS011;35735;52.226;21.254;2023-11-21T17:42:29;18.75;;;11.82;;
44987;SDS011;35735;52.226;21.254;2023-11-21T17:47:29;15.48;;;10.63;;
44987;SDS011;35735;52.226;21.254;2023-11-21T17:52:30;16.87;;;9.88;;
44987;SDS011;35735;52.226;21.254;2023-11-21T17:57:32;26.45;;;14.65;;
44987;SDS011;35735;52.226;21.254;2023-11-21T18:02:32;16.90;;;11.10;;
44987;SDS011;35735;52.226;21.254;2023-11-21T18:07:33;16.85;;;10.23;;
44987;SDS011;35735;52.226;21.254;2023-11-21T18:12:34;19.65;;;10.80;;
44987;SDS011;35735;52.226;21.254;2023-11-21T18:17:34;20.80;;;11.30;;
44987;SDS011;35735;52.226;21.254;2023-11-21T18:22:35;21.12;;;12.65;;
44987;SDS011;35735;52.226;21.254;2023-11-21T18:27:36;21.15;;;12.95;;
44987;SDS011;35735;52.226;21.254;2023-11-21T18:32:37;17.70;;;11.20;;
44987;SDS011;35735;52.226;21.254;2023-11-21T18:37:38;18.42;;;10.95;;
44987;SDS011;35735;52.226;21.254;2023-11-21T18:42:38;15.80;;;10.50;;
44987;SDS011;35735;52.226;21.254;2023-11-21T18:47:39;18.52;;;11.32;;
44987;SDS011;35735;52.226;21.254;2023-11-21T18:52:39;20.40;;;11.25;;
44987;SDS011;35735;52.226;21.254;2023-11-21T18:57:40;20.27;;;12.80;;
44987;SDS011;35735;52.226;21.254;2023-11-21T19:02:40;21.05;;;12.05;;
44987;SDS011;35735;52.226;21.254;2023-11-21T19:07:41;19.48;;;12.05;;
44987;SDS011;35735;52.226;21.254;2023-11-21T19:12:41;19.23;;;11.75;;
44987;SDS011;35735;52.226;21.254;2023-11-21T19:17:42;24.05;;;13.20;;
44987;SDS011;35735;52.226;21.254;2023-11-21T19:22:43;18.17;;;10.38;;
44987;SDS011;35735;52.226;21.254;2023-11-21T19:27:43;16.77;;;9.63;;
44987;SDS011;35735;52.226;21.254;2023-11-21T19:32:44;15.95;;;9.32;;
44987;SDS011;35735;52.226;21.254;2023-11-21T19:37:44;17.62;;;10.38;;
44987;SDS011;35735;52.226;21.254;2023-11-21T19:42:45;18.05;;;11.00;;
44987;SDS011;35735;52.226;21.254;2023-11-21T19:47:45;14.93;;;9.30;;
44987;SDS011;35735;52.226;21.254;2023-11-21T19:52:46;17.05;;;9.90;;
44987;SDS011;35735;52.226;21.254;2023-11-21T19:57:47;17.67;;;9.48;;
44987;SDS011;35735;52.226;21.254;2023-11-21T20:02:47;16.67;;;8.75;;
44987;SDS011;35735;52.226;21.254;2023-11-21T20:07:48;14.20;;;8.75;;
44987;SDS011;35735;52.226;21.254;2023-11-21T20:12:48;13.18;;;8.57;;
44987;SDS011;35735;52.226;21.254;2023-11-21T20:17:49;15.77;;;9.32;;
44987;SDS011;35735;52.226;21.254;2023-11-21T20:22:50;14.65;;;8.80;;
44987;SDS011;35735;52.226;21.254;2023-11-21T20:27:50;13.60;;;8.20;;
44987;SDS011;35735;52.226;21.254;2023-11-21T20:32:51;16.58;;;9.27;;
44987;SDS011;35735;52.226;21.254;2023-11-21T20:37:51;19.70;;;9.30;;
44987;SDS011;35735;52.226;21.254;2023-11-21T20:42:52;15.88;;;8.88;;
44987;SDS011;35735;52.226;21.254;2023-11-21T20:47:53;17.80;;;10.15;;
44987;SDS011;35735;52.226;21.254;2023-11-21T20:52:53;15.25;;;9.63;;
44987;SDS011;35735;52.226;21.254;2023-11-21T20:57:54;19.85;;;10.02;;
44987;SDS011;35735;52.226;21.254;2023-11-21T21:02:54;17.00;;;10.88;;
44987;SDS011;35735;52.226;21.254;2023-11-21T21:07:55;19.00;;;10.93;;
44987;SDS011;35735;52.226;21.254;2023-11-21T21:12:55;16.85;;;11.10;;
44987;SDS011;35735;52.226;21.254;2023-11-21T21:17:56;19.80;;;10.40;;
44987;SDS011;35735;52.226;21.254;2023-11-21T21:22:57;18.10;;;11.07;;
44987;SDS011;35735;52.226;21.254;2023-11-21T21:27:58;16.75;;;10.40;;
44987;SDS011;35735;52.226;21.254;2023-11-21T21:32:59;18.17;;;10.13;;
44987;SDS011;35735;52.226;21.254;2023-11-21T21:38:00;15.07;;;9.60;;
44987;SDS011;35735;52.226;21.254;2023-11-21T21:43:01;20.15;;;11.60;;
44987;SDS011;35735;52.226;21.254;2023-11-21T21:48:01;16.42;;;10.25;;
44987;SDS011;35735;52.226;21.254;2023-11-21T21:53:02;19.02;;;11.00;;
44987;SDS011;35735;52.226;21.254;2023-11-21T21:58:03;19.30;;;10.18;;
44987;SDS011;35735;52.226;21.254;2023-11-21T22:03:03;17.67;;;10.60;;
44987;SDS011;35735;52.226;21.254;2023-11-21T22:08:04;18.10;;;10.13;;
44987;SDS011;35735;52.226;21.254;2023-11-21T22:13:04;20.20;;;10.57;;
44987;SDS011;35735;52.226;21.254;2023-11-21T22:18:05;18.62;;;10.77;;
44987;SDS011;35735;52.226;21.254;2023-11-21T22:23:05;18.77;;;11.23;;
44987;SDS011;35735;52.226;21.254;2023-11-21T22:28:06;17.15;;;10.23;;
44987;SDS011;35735;52.226;21.254;2023-11-21T22:33:07;17.08;;;9.40;;
44987;SDS011;35735;52.226;21.254;2023-11-21T22:38:07;16.92;;;10.35;;
44987;SDS011;35735;52.226;21.254;2023-11-21T22:43:08;15.02;;;9.75;;
44987;SDS011;35735;52.226;21.254;2023-11-21T22:48:09;16.30;;;9.90;;
44987;SDS011;35735;52.226;21.254;2023-11-21T22:53:10;16.92;;;9.40;;
44987;SDS011;35735;52.226;21.254;2023-11-21T22:58:11;15.27;;;9.27;;
44987;SDS011;35735;52.226;21.254;2023-11-21T23:03:11;15.20;;;8.32;;
44987;SDS011;35735;52.226;21.254;2023-11-21T23:08:12;14.18;;;8.95;;
44987;SDS011;35735;52.226;21.254;2023-11-21T23:13:12;16.60;;;8.95;;
44987;SDS011;35735;52.226;21.254;2023-11-21T23:18:13;16.37;;;9.07;;
44987;SDS011;35735;52.226;21.254;2023-11-21T23:23:14;16.17;;;9.05;;
44987;SDS011;35735;52.226;21.254;2023-11-21T23:28:14;14.10;;;9.27;;
44987;SDS011;35735;52.226;21.254;2023-11-21T23:33:15;14.38;;;9.38;;
44987;SDS011;35735;52.226;21.254;2023-11-21T23:38:16;14.20;;;9.13;;
44987;SDS011;35735;52.226;21.254;2023-11-21T23:43:16;15.65;;;9.27;;
44987;SDS011;35735;52.226;21.254;2023-11-21T23:48:17;15.68;;;9.05;;
44987;SDS011;35735;52.226;21.254;2023-11-21T23:53:17;15.65;;;9.13;;
44987;SDS011;35735;52.226;21.254;2023-11-21T23:58:18;12.77;;;8.27;;
